Time;durP1;ratioP1;P1;durP2;ratioP2;P2;SDS_P1;SDS_P2;PMS_P1;PMS_P2;Temp;Humidity;BMP_temperature;BMP_pressure;BME280_temperature;BME280_humidity;BME280_pressure;Samples;Min_cycle;Max_cycle;Signal;HPM_P1;HPM_P2
2022/07/11 00:02:14;;;;;;;1.60;0.60;;;13.90;99.90;;;;;;5074080;28;20025;-73
2022/07/11 00:04:42;;;;;;;2.42;0.60;;;13.90;99.90;;;;;;5073969;28;20027;-73
2022/07/11 00:07:08;;;;;;;1.50;0.60;;;13.90;99.90;;;;;;5074279;28;20070;-74
2022/07/11 00:09:34;;;;;;;2.67;0.88;;;13.80;99.90;;;;;;5074223;28;20028;-74
2022/07/11 00:12:00;;;;;;;1.95;0.70;;;13.80;99.90;;;;;;5073931;28;20099;-74
2022/07/11 00:14:26;;;;;;;4.57;0.65;;;13.80;99.90;;;;;;5072525;28;20028;-73
2022/07/11 00:16:52;;;;;;;2.75;0.77;;;13.80;99.90;;;;;;5074288;28;20024;-74
2022/07/11 00:19:19;;;;;;;2.38;0.73;;;13.80;99.90;;;;;;5073727;28;20101;-74
2022/07/11 00:21:46;;;;;;;2.45;1.08;;;13.70;99.90;;;;;;5074054;28;20021;-74
2022/07/11 00:24:11;;;;;;;3.53;0.82;;;13.70;99.90;;;;;;5073677;28;20104;-73
2022/07/11 00:26:38;;;;;;;1.30;0.77;;;13.70;99.90;;;;;;5073676;28;20055;-74
2022/07/11 00:29:04;;;;;;;1.70;0.73;;;13.70;99.90;;;;;;5074267;28;20028;-74
2022/07/11 00:31:30;;;;;;;2.08;0.80;;;13.70;99.90;;;;;;5073670;28;20031;-73
2022/07/11 00:33:57;;;;;;;1.50;0.73;;;13.70;99.90;;;;;;5072130;28;20481;-74
2022/07/11 00:36:23;;;;;;;2.38;0.75;;;13.70;99.90;;;;;;5073867;28;20028;-74
2022/07/11 00:38:49;;;;;;;1.27;0.60;;;13.70;99.90;;;;;;5073475;28;20032;-74
2022/07/11 00:41:14;;;;;;;1.50;0.90;;;13.70;99.90;;;;;;5073528;28;20021;-74
2022/07/11 00:43:41;;;;;;;1.17;0.70;;;13.70;99.90;;;;;;5073707;28;20025;-73
2022/07/11 00:46:08;;;;;;;3.03;1.00;;;13.70;99.90;;;;;;5073439;28;20557;-74
2022/07/11 00:48:35;;;;;;;1.30;0.88;;;13.70;99.90;;;;;;5073741;28;20032;-74
2022/07/11 00:51:03;;;;;;;2.35;1.00;;;13.70;99.90;;;;;;5073426;28;20033;-74
2022/07/11 00:53:30;;;;;;;2.55;1.10;;;13.60;99.90;;;;;;5073300;28;20054;-73
2022/07/11 00:55:56;;;;;;;3.05;0.93;;;13.60;99.90;;;;;;5073697;28;20381;-74
2022/07/11 00:58:23;;;;;;;3.97;1.00;;;13.60;99.90;;;;;;5073134;28;20028;-73
2022/07/11 01:00:49;;;;;;;3.53;0.95;;;13.50;99.90;;;;;;5073561;28;20021;-74
2022/07/11 01:03:15;;;;;;;3.08;1.15;;;13.50;99.90;;;;;;5072128;28;20107;-73
2022/07/11 01:05:41;;;;;;;2.17;0.98;;;13.50;99.90;;;;;;5073048;28;20051;-73
2022/07/11 01:08:07;;;;;;;3.65;0.93;;;13.40;99.90;;;;;;5073095;28;20020;-72
2022/07/11 01:10:33;;;;;;;2.60;0.98;;;13.30;99.90;;;;;;5072286;28;20095;-72
2022/07/11 01:12:59;;;;;;;1.40;0.80;;;13.20;99.90;;;;;;5072772;28;20124;-73
2022/07/11 01:15:25;;;;;;;2.22;0.80;;;13.20;99.90;;;;;;5070698;28;20052;-73
2022/07/11 01:17:54;;;;;;;3.25;1.30;;;13.10;99.90;;;;;;5072751;28;20017;-73
2022/07/11 01:20:22;;;;;;;1.60;0.70;;;13.10;99.90;;;;;;5072887;28;20021;-73
2022/07/11 01:22:52;;;;;;;2.13;0.93;;;13.00;99.90;;;;;;5073040;28;20017;-72
2022/07/11 01:25:30;;;;;;;2.55;1.30;;;13.00;99.90;;;;;;5071847;28;20028;-73
2022/07/11 01:27:57;;;;;;;1.55;0.90;;;13.00;99.90;;;;;;5072907;28;20549;-72
2022/07/11 01:30:25;;;;;;;3.22;1.38;;;12.90;99.90;;;;;;5072842;28;20048;-73
2022/07/11 01:32:51;;;;;;;2.30;1.10;;;12.90;99.90;;;;;;5072944;28;20025;-73
2022/07/11 01:35:17;;;;;;;2.15;1.00;;;12.80;99.90;;;;;;5072692;28;20109;-73
2022/07/11 01:37:43;;;;;;;3.17;1.02;;;12.80;99.90;;;;;;5072828;28;20044;-73
2022/07/11 01:40:09;;;;;;;2.75;1.17;;;12.90;99.90;;;;;;5073395;28;20025;-74
2022/07/11 01:42:35;;;;;;;3.17;0.80;;;12.90;99.90;;;;;;5072911;28;20554;-74
2022/07/11 01:45:00;;;;;;;1.65;0.88;;;12.90;99.90;;;;;;5072867;28;20064;-74
2022/07/11 01:47:26;;;;;;;1.75;0.80;;;12.90;99.90;;;;;;5072895;28;20043;-74
2022/07/11 01:49:52;;;;;;;4.32;0.80;;;12.90;99.90;;;;;;5072805;28;20028;-74
2022/07/11 01:52:17;;;;;;;2.45;0.80;;;12.90;99.90;;;;;;5073110;28;20539;-74
2022/07/11 01:54:43;;;;;;;3.42;1.10;;;12.90;99.90;;;;;;5072717;28;20031;-73
2022/07/11 01:57:09;;;;;;;1.67;0.80;;;12.90;99.90;;;;;;5072819;28;20412;-74
2022/07/11 01:59:36;;;;;;;3.53;1.00;;;12.80;99.90;;;;;;5072673;28;20028;-74
2022/07/11 02:02:02;;;;;;;1.58;0.95;;;12.80;99.90;;;;;;5072691;28;20519;-74
2022/07/11 02:04:27;;;;;;;3.25;1.05;;;12.80;99.90;;;;;;5072915;28;20036;-73
2022/07/11 02:06:53;;;;;;;5.13;1.45;;;12.80;99.90;;;;;;5072624;28;20020;-73
2022/07/11 02:09:19;;;;;;;4.00;1.70;;;12.70;99.90;;;;;;5073591;28;20024;-74
2022/07/11 02:11:44;;;;;;;5.03;2.90;;;12.70;99.90;;;;;;5076763;28;20123;-74
2022/07/11 02:14:10;;;;;;;6.15;2.97;;;12.70;99.90;;;;;;5076685;28;20047;-73
2022/07/11 02:16:36;;;;;;;9.45;2.65;;;12.70;99.90;;;;;;5076377;28;20354;-74
2022/07/11 02:19:01;;;;;;;2.33;1.60;;;12.70;99.90;;;;;;5075987;28;20067;-74
2022/07/11 02:21:27;;;;;;;4.07;2.13;;;12.70;99.90;;;;;;5076046;28;20392;-74
2022/07/11 02:23:52;;;;;;;4.20;1.13;;;12.70;99.90;;;;;;5075765;28;20021;-73
2022/07/11 02:26:18;;;;;;;2.03;0.90;;;12.70;99.90;;;;;;5075904;28;20017;-74
2022/07/11 02:28:44;;;;;;;2.13;0.80;;;12.70;99.90;;;;;;5075943;28;20028;-74
2022/07/11 02:31:10;;;;;;;2.22;0.90;;;12.70;99.90;;;;;;5075938;28;20032;-74
2022/07/11 02:33:36;;;;;;;2.60;0.93;;;12.70;99.90;;;;;;5075912;28;20353;-74
2022/07/11 02:36:02;;;;;;;1.55;0.90;;;12.70;99.90;;;;;;5076144;28;20068;-74
2022/07/11 02:38:27;;;;;;;1.88;0.90;;;12.70;99.90;;;;;;5075633;28;20029;-74
2022/07/11 02:40:53;;;;;;;1.42;1.10;;;12.60;99.90;;;;;;5076023;28;20027;-74
2022/07/11 02:43:20;;;;;;;2.20;1.00;;;12.60;99.90;;;;;;5075654;28;20484;-74
2022/07/11 02:45:46;;;;;;;5.35;1.10;;;12.60;99.90;;;;;;5075770;28;20021;-74
2022/07/11 02:48:12;;;;;;;4.00;1.20;;;12.60;99.90;;;;;;5075572;28;20023;-74
2022/07/11 02:50:38;;;;;;;1.85;0.90;;;12.50;99.90;;;;;;5074288;28;20460;-74
2022/07/11 02:53:03;;;;;;;1.55;0.95;;;12.50;99.90;;;;;;5076135;28;20085;-74
2022/07/11 02:55:29;;;;;;;1.67;0.82;;;12.50;99.90;;;;;;5075372;28;20392;-74
2022/07/11 02:57:55;;;;;;;1.35;0.70;;;12.50;99.90;;;;;;5075445;28;20038;-74
2022/07/11 03:00:20;;;;;;;4.63;2.60;;;12.50;99.90;;;;;;5075258;28;20033;-74
2022/07/11 03:02:46;;;;;;;7.93;2.60;;;12.40;99.90;;;;;;5075813;28;20449;-74
2022/07/11 03:05:12;;;;;;;2.75;1.80;;;12.40;99.90;;;;;;5075442;28;20016;-73
2022/07/11 03:07:38;;;;;;;3.00;1.25;;;12.40;99.90;;;;;;5075175;28;20020;-74
2022/07/11 03:10:05;;;;;;;2.92;1.08;;;12.40;99.90;;;;;;5073843;28;20028;-74
2022/07/11 03:12:31;;;;;;;1.55;0.88;;;12.40;99.90;;;;;;5075736;28;20025;-74
2022/07/11 03:14:57;;;;;;;2.10;0.90;;;12.30;99.90;;;;;;5075041;28;20046;-74
2022/07/11 03:17:23;;;;;;;2.33;2.05;;;12.30;99.90;;;;;;5075545;28;20095;-74
2022/07/11 03:19:48;;;;;;;2.33;1.30;;;12.30;99.90;;;;;;5075057;28;20030;-74
2022/07/11 03:22:15;;;;;;;2.22;1.27;;;12.20;99.90;;;;;;5073857;28;20465;-74
2022/07/11 03:24:41;;;;;;;2.25;1.30;;;12.20;99.90;;;;;;5075030;28;20027;-74
2022/07/11 03:27:07;;;;;;;2.65;1.35;;;12.30;99.90;;;;;;5074776;28;20021;-74
2022/07/11 03:29:33;;;;;;;4.57;1.13;;;12.30;99.90;;;;;;5074746;28;20419;-75
2022/07/11 03:31:59;;;;;;;3.47;1.13;;;12.30;99.90;;;;;;5074679;28;20556;-75
2022/07/11 03:34:25;;;;;;;2.15;0.90;;;12.30;99.90;;;;;;5074435;28;20090;-75
2022/07/11 03:36:51;;;;;;;3.38;1.00;;;12.20;99.90;;;;;;5074866;28;20016;-74
2022/07/11 03:39:16;;;;;;;2.65;1.30;;;12.20;99.90;;;;;;5074418;28;20032;-75
2022/07/11 03:41:42;;;;;;;4.05;1.50;;;12.10;99.90;;;;;;5074483;28;20410;-75
2022/07/11 03:44:09;;;;;;;3.17;1.23;;;12.10;99.90;;;;;;5074381;28;20027;-74
2022/07/11 03:46:35;;;;;;;2.35;0.82;;;12.10;99.90;;;;;;5074972;28;20089;-75
2022/07/11 03:49:00;;;;;;;2.75;0.85;;;12.10;99.90;;;;;;5075074;28;20122;-75
2022/07/11 03:51:26;;;;;;;2.22;1.00;;;12.10;99.90;;;;;;5074347;28;20024;-74
2022/07/11 03:53:52;;;;;;;1.23;0.65;;;12.10;99.90;;;;;;5074215;28;20385;-73
2022/07/11 03:56:22;;;;;;;2.25;1.00;;;12.10;99.90;;;;;;5074506;28;20387;-75
2022/07/11 03:58:49;;;;;;;2.22;1.02;;;12.10;99.90;;;;;;5074399;28;20473;-75
2022/07/11 04:01:15;;;;;;;2.17;1.00;;;12.10;99.90;;;;;;5074114;28;20028;-74
2022/07/11 04:03:41;;;;;;;2.15;1.08;;;12.20;99.90;;;;;;5074379;28;20017;-73
2022/07/11 04:06:06;;;;;;;4.28;1.08;;;12.20;99.90;;;;;;5074028;28;20021;-75
2022/07/11 04:08:32;;;;;;;3.15;1.00;;;12.30;99.90;;;;;;5073989;28;20029;-74
2022/07/11 04:10:58;;;;;;;4.22;1.30;;;12.30;99.90;;;;;;5073923;28;20020;-74
2022/07/11 04:13:24;;;;;;;3.08;1.17;;;12.30;99.90;;;;;;5073895;28;20370;-75
2022/07/11 04:15:50;;;;;;;3.90;1.00;;;12.30;99.90;;;;;;5073856;28;20052;-75
2022/07/11 04:18:15;;;;;;;4.15;1.00;;;12.30;99.90;;;;;;5072516;28;20485;-75
2022/07/11 04:20:41;;;;;;;2.88;1.08;;;12.40;99.90;;;;;;5073834;28;20055;-75
2022/07/11 04:23:07;;;;;;;2.47;1.00;;;12.40;99.90;;;;;;5074042;28;20024;-75
2022/07/11 04:25:35;;;;;;;2.50;1.50;;;12.40;99.90;;;;;;5073651;28;20025;-74
2022/07/11 04:28:01;;;;;;;3.83;1.00;;;12.40;99.90;;;;;;5073963;28;20086;-75
2022/07/11 04:30:27;;;;;;;3.28;1.00;;;12.40;99.90;;;;;;5073679;28;20464;-75
2022/07/11 04:32:53;;;;;;;1.85;1.10;;;12.40;99.90;;;;;;5073287;28;20031;-75
2022/07/11 04:35:19;;;;;;;5.13;0.90;;;12.40;99.90;;;;;;5073435;28;20028;-75
2022/07/11 04:37:45;;;;;;;3.72;1.00;;;12.40;99.90;;;;;;5073574;28;20432;-75
2022/07/11 04:40:11;;;;;;;2.78;1.00;;;12.30;99.90;;;;;;5073727;28;20107;-75
2022/07/11 04:42:37;;;;;;;2.65;0.90;;;12.40;99.90;;;;;;5072215;28;20469;-75
2022/07/11 04:45:03;;;;;;;2.47;1.08;;;12.40;99.90;;;;;;5073471;28;20110;-74
2022/07/11 04:47:28;;;;;;;3.63;2.08;;;12.40;99.90;;;;;;5073491;28;20036;-75
2022/07/11 04:49:55;;;;;;;2.83;1.80;;;12.40;99.90;;;;;;5072163;28;20028;-75
2022/07/11 04:52:21;;;;;;;3.00;1.60;;;12.40;99.90;;;;;;5073824;28;20044;-75
2022/07/11 04:54:46;;;;;;;3.33;1.20;;;12.40;99.90;;;;;;5073527;28;20029;-74
2022/07/11 04:57:12;;;;;;;3.05;1.27;;;12.50;99.90;;;;;;5073752;28;20028;-74
2022/07/11 04:59:38;;;;;;;1.75;1.35;;;12.60;99.90;;;;;;5073293;28;20392;-75
2022/07/11 05:02:04;;;;;;;2.58;0.90;;;12.60;99.90;;;;;;5073738;28;20016;-74
2022/07/11 05:04:30;;;;;;;3.50;0.93;;;12.70;99.90;;;;;;5073728;28;20480;-74
2022/07/11 05:06:55;;;;;;;2.10;0.95;;;12.70;99.90;;;;;;5073402;28;20025;-74
2022/07/11 05:09:21;;;;;;;2.30;0.80;;;12.80;99.90;;;;;;5073809;28;20423;-74
2022/07/11 05:11:47;;;;;;;5.38;1.45;;;12.80;99.90;;;;;;5073220;28;20103;-75
2022/07/11 05:14:12;;;;;;;1.75;0.98;;;12.90;99.90;;;;;;5072223;28;20027;-74
2022/07/11 05:16:38;;;;;;;2.13;1.10;;;12.90;99.90;;;;;;5073206;28;20025;-75
2022/07/11 05:19:04;;;;;;;5.95;1.02;;;13.00;99.90;;;;;;5073164;28;20024;-74
2022/07/11 05:21:30;;;;;;;2.53;1.00;;;13.00;99.90;;;;;;5073133;28;20078;-75
2022/07/11 05:23:56;;;;;;;3.88;0.80;;;13.00;99.90;;;;;;5073074;28;20024;-74
2022/07/11 05:26:21;;;;;;;4.63;1.10;;;13.00;99.90;;;;;;5073085;28;20027;-75
2022/07/11 05:28:47;;;;;;;2.90;1.13;;;13.00;99.90;;;;;;5073082;28;20021;-75
2022/07/11 05:31:13;;;;;;;1.85;0.80;;;13.00;99.90;;;;;;5073046;28;20384;-75
2022/07/11 05:33:38;;;;;;;3.67;0.90;;;13.00;99.90;;;;;;5071602;28;20071;-75
2022/07/11 05:36:04;;;;;;;1.77;0.93;;;13.10;99.90;;;;;;5073039;28;20093;-76
2022/07/11 05:38:30;;;;;;;2.70;0.98;;;13.10;99.90;;;;;;5073381;28;20063;-76
2022/07/11 05:40:55;;;;;;;2.17;0.90;;;13.10;99.90;;;;;;5073277;28;20478;-76
2022/07/11 05:43:23;;;;;;;2.63;1.02;;;13.20;99.90;;;;;;5073015;28;20033;-75
2022/07/11 05:45:48;;;;;;;2.88;0.80;;;13.20;99.90;;;;;;5076186;28;20020;-76
2022/07/11 05:48:14;;;;;;;3.03;0.73;;;13.20;99.90;;;;;;5077143;28;20027;-71
2022/07/11 05:50:40;;;;;;;1.20;0.80;;;13.30;99.90;;;;;;5076635;28;20094;-71
2022/07/11 05:53:05;;;;;;;2.13;0.70;;;13.30;99.90;;;;;;5076561;28;20029;-71
2022/07/11 05:55:31;;;;;;;2.53;1.05;;;13.40;99.90;;;;;;5076431;28;20046;-71
2022/07/11 05:57:59;;;;;;;2.58;0.98;;;13.40;99.90;;;;;;5076753;28;20071;-71
2022/07/11 06:00:27;;;;;;;1.48;0.70;;;13.50;99.90;;;;;;5076379;28;20125;-71
2022/07/11 06:02:52;;;;;;;2.88;1.25;;;13.50;99.90;;;;;;5075123;28;20017;-71
2022/07/11 06:05:18;;;;;;;3.63;1.00;;;13.50;99.90;;;;;;5076287;28;20027;-71
2022/07/11 06:10:28;;;;;;;3.15;1.00;;;13.50;99.90;;;;;;5076592;28;20086;-72
2022/07/11 06:12:54;;;;;;;3.22;0.85;;;13.50;99.90;;;;;;5076265;28;20024;-71
2022/07/11 06:15:20;;;;;;;3.22;0.90;;;13.60;99.90;;;;;;5076398;28;20443;-71
2022/07/11 06:17:46;;;;;;;1.90;0.80;;;13.60;99.90;;;;;;5074840;28;20020;-71
2022/07/11 06:20:12;;;;;;;2.20;1.27;;;13.70;99.90;;;;;;5076020;28;20157;-71
2022/07/11 06:22:38;;;;;;;2.83;0.82;;;13.70;99.90;;;;;;5076030;28;20073;-71
2022/07/11 06:25:04;;;;;;;2.30;0.90;;;13.70;99.90;;;;;;5076169;28;20025;-71
2022/07/11 06:27:30;;;;;;;4.18;1.00;;;13.80;99.90;;;;;;5076206;28;20098;-71
2022/07/11 06:29:55;;;;;;;1.73;0.90;;;13.80;99.90;;;;;;5076400;28;20035;-71
2022/07/11 06:32:21;;;;;;;1.80;1.00;;;13.90;99.90;;;;;;5076087;28;20025;-71
2022/07/11 06:34:47;;;;;;;2.95;1.00;;;14.00;99.90;;;;;;5075601;28;20082;-71
2022/07/11 06:37:12;;;;;;;2.25;0.95;;;13.90;99.90;;;;;;5074469;28;20036;-71
2022/07/11 06:39:38;;;;;;;3.45;0.93;;;14.00;99.90;;;;;;5075572;28;20032;-71
2022/07/11 06:42:04;;;;;;;5.35;1.02;;;14.00;99.90;;;;;;5075960;28;20021;-71
2022/07/11 06:44:29;;;;;;;2.88;1.17;;;14.00;99.90;;;;;;5075597;28;20091;-71
2022/07/11 06:46:56;;;;;;;4.20;1.05;;;14.00;99.90;;;;;;5074412;28;20078;-71
2022/07/11 06:49:22;;;;;;;2.15;1.00;;;14.00;99.90;;;;;;5075568;28;20025;-71
2022/07/11 06:51:47;;;;;;;2.35;1.00;;;14.00;99.90;;;;;;5075527;28;20121;-71
2022/07/11 06:54:13;;;;;;;2.17;0.90;;;14.00;99.90;;;;;;5075610;28;20373;-71
2022/07/11 06:56:39;;;;;;;5.13;1.15;;;14.10;99.90;;;;;;5075150;28;20033;-71
2022/07/11 06:59:04;;;;;;;1.25;0.80;;;14.10;99.90;;;;;;5075308;28;20024;-71
2022/07/11 07:01:30;;;;;;;3.92;1.13;;;14.20;99.90;;;;;;5075589;28;20021;-71
2022/07/11 07:03:56;;;;;;;2.05;0.95;;;14.20;99.90;;;;;;5075215;28;20088;-71
2022/07/11 07:06:21;;;;;;;4.38;1.20;;;14.30;99.90;;;;;;5075257;28;20020;-77
2022/07/11 07:08:47;;;;;;;5.47;1.60;;;14.30;99.90;;;;;;5075250;28;20024;-71
2022/07/11 07:11:13;;;;;;;4.95;1.73;;;14.30;99.90;;;;;;5075124;28;20029;-70
2022/07/11 07:13:38;;;;;;;2.90;1.33;;;14.30;99.90;;;;;;5075283;28;20031;-72
2022/07/11 07:16:06;;;;;;;2.78;1.52;;;14.40;99.90;;;;;;5073809;28;20031;-71
2022/07/11 07:18:32;;;;;;;3.70;1.90;;;14.40;99.90;;;;;;5075222;28;20028;-72
2022/07/11 07:20:58;;;;;;;3.55;1.83;;;14.40;99.90;;;;;;5074983;28;20017;-72
2022/07/11 07:23:23;;;;;;;3.00;1.80;;;14.50;99.90;;;;;;5074972;28;20481;-72
2022/07/11 07:25:49;;;;;;;5.03;2.20;;;14.50;99.90;;;;;;5074714;28;20021;-72
2022/07/11 07:28:15;;;;;;;3.65;2.33;;;14.60;99.90;;;;;;5075069;28;20071;-73
2022/07/11 07:30:40;;;;;;;4.35;2.10;;;14.60;99.90;;;;;;5075120;28;20489;-73
2022/07/11 07:33:06;;;;;;;2.72;1.80;;;14.80;99.90;;;;;;5074882;28;20033;-72
2022/07/11 07:35:32;;;;;;;3.17;1.90;;;14.80;99.90;;;;;;5074609;28;20097;-72
2022/07/11 07:37:57;;;;;;;2.25;1.70;;;14.90;99.90;;;;;;5074621;28;20475;-72
2022/07/11 07:40:23;;;;;;;2.97;2.22;;;15.00;99.90;;;;;;5074532;28;20085;-72
2022/07/11 07:42:48;;;;;;;3.88;2.50;;;15.20;99.90;;;;;;5074498;28;20486;-72
2022/07/11 07:45:14;;;;;;;3.55;2.10;;;15.30;99.90;;;;;;5074468;28;20381;-72
2022/07/11 07:47:41;;;;;;;4.07;2.30;;;15.40;99.90;;;;;;5074315;28;20021;-72
2022/07/11 07:50:07;;;;;;;3.80;2.42;;;15.50;99.90;;;;;;5074659;28;20017;-72
2022/07/11 07:52:33;;;;;;;4.70;2.20;;;15.60;99.90;;;;;;5074179;28;20020;-72
2022/07/11 07:54:58;;;;;;;4.97;2.58;;;15.70;99.90;;;;;;5074183;28;20111;-72
2022/07/11 07:57:24;;;;;;;5.40;3.15;;;15.80;99.90;;;;;;5074480;28;20465;-72
2022/07/11 07:59:50;;;;;;;5.03;2.50;;;15.80;99.90;;;;;;5074277;28;20050;-72
2022/07/11 08:02:15;;;;;;;5.88;2.75;;;15.80;99.90;;;;;;5074359;28;20041;-72
2022/07/11 08:04:41;;;;;;;5.65;2.10;;;15.90;99.90;;;;;;5074105;28;20020;-72
2022/07/11 08:07:07;;;;;;;3.83;1.80;;;15.90;99.90;;;;;;5073664;28;20017;-72
2022/07/11 08:09:32;;;;;;;2.92;1.30;;;15.90;99.90;;;;;;5074263;28;20099;-70
2022/07/11 08:11:58;;;;;;;2.97;1.20;;;15.90;99.90;;;;;;5074504;28;20029;-72
2022/07/11 08:14:25;;;;;;;3.13;1.30;;;16.00;99.90;;;;;;5074010;28;20024;-72
2022/07/11 08:16:50;;;;;;;2.33;1.15;;;16.10;99.90;;;;;;5074116;28;20017;-71
2022/07/11 08:19:17;;;;;;;3.22;1.20;;;16.20;99.90;;;;;;5074243;28;20035;-71
2022/07/11 08:21:42;;;;;;;2.78;1.63;;;16.20;99.90;;;;;;5074035;28;20096;-72
2022/07/11 08:24:08;;;;;;;2.47;1.50;;;16.30;99.90;;;;;;5072647;28;20082;-71
2022/07/11 08:26:34;;;;;;;4.55;1.65;;;16.40;99.90;;;;;;5072165;28;20028;-71
2022/07/11 08:29:04;;;;;;;4.07;1.90;;;16.60;99.90;;;;;;5073596;28;20495;-71
2022/07/11 08:31:30;;;;;;;4.27;1.60;;;16.60;99.90;;;;;;5072848;28;20077;-71
2022/07/11 08:33:57;;;;;;;2.45;1.05;;;16.60;98.90;;;;;;5073194;28;20040;-72
2022/07/11 08:36:23;;;;;;;2.42;0.80;;;16.70;99.20;;;;;;5070421;28;20021;-71
2022/07/11 08:38:49;;;;;;;3.35;1.08;;;16.80;98.00;;;;;;5073308;28;20093;-71
2022/07/11 08:41:16;;;;;;;2.20;1.00;;;16.90;99.00;;;;;;5073357;28;20487;-72
2022/07/11 08:43:43;;;;;;;7.05;1.27;;;16.90;98.70;;;;;;5072389;28;20019;-72
2022/07/11 08:46:10;;;;;;;2.13;1.20;;;17.00;98.30;;;;;;5072092;28;20102;-72
2022/07/11 08:48:39;;;;;;;6.03;1.15;;;17.00;97.90;;;;;;5073252;28;20020;-72
2022/07/11 08:51:11;;;;;;;2.58;1.10;;;17.10;98.10;;;;;;5072979;28;20036;-72
2022/07/11 08:53:44;;;;;;;4.43;1.33;;;17.20;96.70;;;;;;5073176;28;20021;-72
2022/07/11 08:56:14;;;;;;;1.83;0.80;;;17.30;96.70;;;;;;5073220;28;20027;-72
2022/07/11 08:58:43;;;;;;;3.60;1.00;;;17.40;96.70;;;;;;5072144;28;20435;-72
2022/07/11 09:01:10;;;;;;;3.58;1.10;;;17.60;96.60;;;;;;5066652;28;20024;-72
2022/07/11 09:03:36;;;;;;;3.65;0.90;;;17.70;97.30;;;;;;5072983;28;20035;-72
2022/07/11 09:06:03;;;;;;;2.25;0.85;;;17.80;95.70;;;;;;5073043;28;20044;-71
2022/07/11 09:08:29;;;;;;;2.55;1.00;;;17.90;94.10;;;;;;5073039;28;20495;-72
2022/07/11 09:10:55;;;;;;;1.85;0.82;;;18.00;94.30;;;;;;5073065;28;20392;-73
2022/07/11 09:13:28;;;;;;;2.20;0.85;;;18.30;94.50;;;;;;5072894;28;20096;-73
2022/07/11 09:16:02;;;;;;;5.10;1.00;;;18.50;93.80;;;;;;5066819;28;20032;-73
2022/07/11 09:18:41;;;;;;;1.75;0.80;;;18.70;94.20;;;;;;5067365;28;20025;-73
2022/07/11 09:26:44;;;;;;;;;;;19.30;93.50;;;;;;5071456;28;20078;-73
2022/07/11 09:29:11;;;;;;;;;;;19.20;92.00;;;;;;5077417;28;19908;-73
2022/07/11 09:31:37;;;;;;;;;;;19.30;91.90;;;;;;5077381;28;20356;-73
2022/07/11 09:34:08;;;;;;;;;;;19.30;91.00;;;;;;5077114;28;19913;-73
2022/07/11 09:36:51;;;;;;;;;;;19.30;91.90;;;;;;5076078;28;20379;-73
2022/07/11 09:39:17;;;;;;;;;;;19.30;91.40;;;;;;5077209;28;20360;-73
2022/07/11 09:41:43;;;;;;;;;;;19.30;90.50;;;;;;5076832;28;19962;-73
2022/07/11 09:44:18;;;;;;;;;;;19.50;90.40;;;;;;5077096;28;19911;-73
2022/07/11 09:46:46;;;;;;;;;;;19.60;90.20;;;;;;5077014;28;20284;-73
2022/07/11 09:49:12;;;;;;;;;;;19.70;91.20;;;;;;5077037;28;19958;-73
2022/07/11 09:51:38;;;;;;;;;;;19.80;90.00;;;;;;5076965;28;19954;-73
2022/07/11 09:54:04;;;;;;;;;;;20.00;89.30;;;;;;5076842;28;19904;-73
2022/07/11 09:56:43;;;;;;;;;;;20.10;85.10;;;;;;5076996;28;19940;-73
2022/07/11 09:59:10;;;;;;;;;;;20.10;87.00;;;;;;5076009;28;19908;-73
2022/07/11 10:01:36;;;;;;;;;;;20.00;86.90;;;;;;5076820;28;20002;-73
2022/07/11 10:04:02;;;;;;;;;;;19.80;86.30;;;;;;5075473;28;19979;-71
2022/07/11 10:06:27;;;;;;;;;;;19.80;85.40;;;;;;5076715;28;20316;-73
2022/07/11 10:08:53;;;;;;;;;;;19.80;85.00;;;;;;5076669;28;20276;-73
2022/07/11 10:11:19;;;;;;;;;;;19.90;87.40;;;;;;5076553;28;20348;-73
2022/07/11 10:13:45;;;;;;;;;;;20.00;87.30;;;;;;5076158;28;19915;-73
2022/07/11 10:16:15;;;;;;;;;;;20.20;86.20;;;;;;5076462;28;19911;-73
2022/07/11 10:18:44;;;;;;;;;;;20.30;87.00;;;;;;5076500;28;19995;-72
2022/07/11 10:21:13;;;;;;;;;;;20.30;86.60;;;;;;5075809;28;19967;-73
2022/07/11 10:23:41;;;;;;;;;;;20.20;84.90;;;;;;5074053;28;20061;-73
2022/07/11 10:26:25;;;;;;;;;;;20.10;85.10;;;;;;5075927;28;20279;-71
2022/07/11 10:28:50;;;;;;;;;;;20.00;83.60;;;;;;5075903;28;20491;-72
2022/07/11 10:31:20;;;;;;;;;;;19.80;85.60;;;;;;5075682;28;19987;-72
2022/07/11 10:34:02;;;;;;;;;;;19.70;84.40;;;;;;5076467;28;19912;-72
2022/07/11 10:36:29;;;;;;;;;;;19.70;85.60;;;;;;5076882;28;19905;-73
2022/07/11 10:39:16;;;;;;;;;;;19.70;87.10;;;;;;5076469;28;19908;-73
2022/07/11 10:41:42;;;;;;;;;;;19.70;90.20;;;;;;5076564;28;19904;-73
2022/07/11 10:44:07;;;;;;;;;;;19.80;87.00;;;;;;5076293;28;20410;-73
2022/07/11 10:46:34;;;;;;;;;;;19.80;85.20;;;;;;5076421;28;19905;-73
2022/07/11 10:49:06;;;;;;;;;;;19.90;85.70;;;;;;5076689;28;19904;-73
2022/07/11 10:51:40;;;;;;;;;;;20.00;87.80;;;;;;5074763;28;19966;-73
2022/07/11 10:54:21;;;;;;;;;;;20.00;84.00;;;;;;5075940;28;19905;-73
2022/07/11 10:56:53;;;;;;;;;;;20.10;86.50;;;;;;5074711;28;19958;-72
2022/07/11 10:59:19;;;;;;;;;;;20.30;87.00;;;;;;5075836;28;20003;-73
2022/07/11 11:02:06;;;;;;;;;;;20.30;85.00;;;;;;5076435;28;19943;-72
2022/07/11 11:04:50;;;;;;;;;;;20.30;84.70;;;;;;5076288;28;19905;-72
2022/07/11 11:07:27;;;;;;;;;;;20.10;83.70;;;;;;5075778;28;19916;-72
2022/07/11 11:09:53;;;;;;;;;;;20.20;83.10;;;;;;5076220;28;19911;-72
2022/07/11 11:12:19;;;;;;;;;;;20.30;86.50;;;;;;5076157;28;19905;-73
2022/07/11 11:14:44;;;;;;;;;;;20.40;86.20;;;;;;5076345;28;19905;-72
2022/07/11 11:17:30;;;;;;;;;;;20.50;84.10;;;;;;5076079;28;19905;-72
2022/07/11 11:19:56;;;;;;;;;;;20.50;80.70;;;;;;5071597;28;19947;-72
2022/07/11 11:22:23;;;;;;;;;;;20.40;82.70;;;;;;5075331;28;19957;-72
2022/07/11 11:24:49;;;;;;;;;;;20.40;83.70;;;;;;5075548;28;19904;-73
2022/07/11 11:27:16;;;;;;;;;;;20.40;82.90;;;;;;5075604;28;20311;-72
2022/07/11 11:29:41;;;;;;;;;;;20.50;82.30;;;;;;5075307;28;20294;-72
2022/07/11 11:32:08;;;;;;;;;;;20.50;82.50;;;;;;5075513;28;19905;-72
2022/07/11 11:34:33;;;;;;;;;;;20.50;84.80;;;;;;5075052;28;19951;-72
2022/07/11 11:37:01;;;;;;;;;;;20.50;82.40;;;;;;5075312;28;19908;-72
2022/07/11 11:39:28;;;;;;;;;;;20.50;83.10;;;;;;5073796;28;20288;-72
2022/07/11 11:41:54;;;;;;;;;;;20.50;82.70;;;;;;5074046;28;19905;-73
2022/07/11 11:44:19;;;;;;;;;;;20.50;81.80;;;;;;5075193;28;20030;-72
2022/07/11 11:46:45;;;;;;;;;;;20.60;82.30;;;;;;5075993;28;20266;-72
2022/07/11 11:49:10;;;;;;;;;;;20.60;83.50;;;;;;5074877;28;19970;-72
2022/07/11 11:51:37;;;;;;;;;;;20.60;83.60;;;;;;5075124;28;19904;-72
2022/07/11 11:54:03;;;;;;;;;;;20.60;82.60;;;;;;5074755;28;19908;-72
2022/07/11 11:56:33;;;;;;;;;;;20.70;83.30;;;;;;5075057;28;20403;-72
2022/07/11 11:59:04;;;;;;;;;;;20.80;82.70;;;;;;5074592;28;20368;-72
2022/07/11 12:01:31;;;;;;;;;;;21.00;81.30;;;;;;5074917;28;19911;-72
2022/07/11 12:04:01;;;;;;;;;;;21.20;82.30;;;;;;5074750;28;19911;-72
2022/07/11 12:06:28;;;;;;;;;;;21.30;80.90;;;;;;5073278;28;19988;-72
2022/07/11 12:09:12;;;;;;;;;;;21.50;83.40;;;;;;5074399;28;19910;-72
2022/07/11 12:11:38;;;;;;;;;;;21.50;79.10;;;;;;5070850;28;19995;-72
2022/07/11 12:14:05;;;;;;;;;;;21.50;80.50;;;;;;5073052;28;19904;-72
2022/07/11 12:16:41;;;;;;;;;;;21.40;81.80;;;;;;5074164;28;19904;-72
2022/07/11 12:19:07;;;;;;;;;;;21.60;85.20;;;;;;5074055;28;20270;-72
2022/07/11 12:21:34;;;;;;;;;;;21.60;79.30;;;;;;5074085;28;20330;-72
2022/07/11 12:24:01;;;;;;;;;;;21.50;78.90;;;;;;5073962;28;19908;-73
2022/07/11 12:26:29;;;;;;;;;;;21.60;79.60;;;;;;5073941;28;19963;-72
2022/07/11 12:29:05;;;;;;;;;;;21.80;80.60;;;;;;5073363;28;20277;-72
2022/07/11 12:31:43;;;;;;;;;;;21.80;79.10;;;;;;5073977;28;19904;-73
2022/07/11 12:34:09;;;;;;;;;;;21.80;80.40;;;;;;5073877;28;20357;-72
2022/07/11 12:36:34;;;;;;;;;;;21.90;78.70;;;;;;5074006;28;19909;-73
2022/07/11 12:39:00;;;;;;;;;;;22.00;81.40;;;;;;5073859;28;19908;-74
2022/07/11 12:41:26;;;;;;;;;;;22.10;79.20;;;;;;5074161;28;20287;-72
2022/07/11 12:46:39;;;;;;;;;;;22.40;79.60;;;;;;5069798;28;19957;-72
2022/07/11 12:49:07;;;;;;;;;;;22.60;78.80;;;;;;5073796;28;20431;-72
2022/07/11 12:51:42;;;;;;;;;;;22.70;74.70;;;;;;5073871;28;19904;-72
2022/07/11 12:54:09;;;;;;;;;;;22.80;76.30;;;;;;5072185;28;19905;-72
2022/07/11 12:56:35;;;;;;;;;;;22.90;77.70;;;;;;5073759;28;19909;-72
2022/07/11 12:59:02;;;;;;;;;;;22.80;77.20;;;;;;5073872;28;19978;-72
2022/07/11 13:01:31;;;;;;;;;;;22.80;76.60;;;;;;5073665;28;20450;-73
2022/07/11 13:03:57;;;;;;;;;;;22.70;76.70;;;;;;5073495;28;19905;-72
2022/07/11 13:09:08;;;;;;;;;;;22.80;79.30;;;;;;5073553;28;19912;-72
2022/07/11 13:11:34;;;;;;;;;;;22.90;76.00;;;;;;5073603;28;19904;-72
2022/07/11 13:13:59;;;;;;;;;;;22.90;75.90;;;;;;5073244;28;20353;-71
2022/07/11 13:16:25;;;;;;;;;;;23.00;76.90;;;;;;5073510;28;19991;-72
2022/07/11 13:18:50;;;;;;;;;;;22.90;75.20;;;;;;5073363;28;19995;-72
2022/07/11 13:21:16;;;;;;;;;;;22.90;76.00;;;;;;5072198;28;19909;-71
2022/07/11 13:23:42;;;;;;;;;;;22.90;76.00;;;;;;5073465;28;19904;-70
2022/07/11 13:26:08;;;;;;;;;;;23.00;76.20;;;;;;5073551;28;20396;-72